Terminal Aerodrome Forecast
Issued by NWS Tuscon, AZ

Home | Current Version | Previous Version | Text Only | Print | Product List | Glossary On
Versions: 1 2 3 4 5 6 7 8 9 10 11 12
000
FTUS45 KTWC 020521
TAFTUS
TAF
KTUS 020521Z 0206/0306 20006KT P6SM FEW250
     FM020800 15006KT P6SM SCT250
     FM022000 26014G22KT P6SM SCT250
     FM030300 26008KT P6SM FEW250=

USA.gov is the U.S. government's official web portal to all federal, state and local government web resources and services.